Aeroporto :
LOGIN :

Iscrizione | Disclaimer

   EN    FR    IT 

 










Sommario :    VFR   VFR Marginale   IFR   IFR Intensivo   IFR Molto Intensivo
Visibilità : 
Base nubi : 
>= 8 km
>= 3000ft
5 / 8 km
1000 / 3000 ft
1500m / 5 km
500 / 1000 ft
800 / 1500m
200 / 500 ft
< 800m
< 200 ft
Simboli :   Temporali  Nebbia  Neve Forte  Precipitazioni Forti  Vento > 20 kt
SIGMETs :   Varie  Temporali  Ghiacco  Turbolenza  Onda orograficha  Ceneri Vulcaniche






- Altitudine del aeroporto : 135 ft
- Codice IATA : EDI


EGPH - Edinburgh

ULTIMO METAR :
  • 070350Z VRB03KT 9999 FEW029 10/07 Q1004

METARs OBSOLETI :
  • 070320Z VRB03KT 9999 FEW040 09/07 Q1004
  • 070250Z 33004KT 260V010 CAVOK 11/07 Q1004
  • 070220Z 34005KT 290V040 9999 FEW029 11/07 Q1003
  • 070150Z 36004KT 310V040 CAVOK 11/08 Q1003
  • 070120Z 04003KT 9999 FEW035 11/08 Q1003

TAF TAF EGPH
Valido dal 07 a 00 ore il 08 a 00 ore UTC


062253Z 0700/0724 35010KT 9999 SCT045
TEMPO 0700/0709 24005KT
PROB30
TEMPO 0700/0702 7000 RA
BECMG 0709/0712 09010KT
BECMG 0721/0724 02003KT
ATIS : +44 131 339 2823



MetMap, La meteo Aeronautica in un colpo d'occhio ! - Copyright ORBIFLY Dicembre 2007 - Disclaimer

ORBIFLY MET'MAP TEAM :

Programmazione e sviluppo : Alexandra Zaïnal
Concezione : Baudouin d'Aumeries
Aiuto per la programmazione : Marc-Olivier Méhu
Supporto tecnico e logistico : Manuel Goepfert
Aiuto per la traduzione : Arnaldo La Scala

Contatto : metmap@orbifly.com




FONTI E CREDITI :

   NOAA